Time;durP1;ratioP1;P1;durP2;ratioP2;P2;SDS_P1;SDS_P2;PMS_P1;PMS_P2;Temp;Humidity;BMP_temperature;BMP_pressure;BME280_temperature;BME280_humidity;BME280_pressure;Samples;Min_cycle;Max_cycle;Signal;HPM_P1;HPM_P2
2022/04/21 00:00:39;;;;;;;7.03;5.85;;;;;;;3.76;54.69;93810.44;4980268;28;20035;-75
2022/04/21 00:03:05;;;;;;;6.03;4.35;;;;;;;3.90;54.63;93837.72;4987556;28;20116;-74
2022/04/21 00:05:31;;;;;;;6.75;4.82;;;;;;;3.77;54.99;93828.56;4980346;28;20046;-74
2022/04/21 00:07:57;;;;;;;8.20;5.28;;;;;;;3.62;54.76;93806.81;4984549;28;20034;-73
2022/04/21 00:10:24;;;;;;;7.35;5.50;;;;;;;3.81;55.02;93837.53;4978865;28;20511;-73
2022/04/21 00:12:50;;;;;;;10.50;5.57;;;;;;;3.81;54.91;93831.47;4981532;28;20046;-72
2022/04/21 00:15:16;;;;;;;6.88;4.97;;;;;;;3.79;55.06;93826.47;4983260;28;20810;-74
2022/04/21 00:17:42;;;;;;;5.75;4.57;;;;;;;3.78;54.93;93834.63;4984812;28;20034;-73
2022/04/21 00:20:08;;;;;;;5.72;4.18;;;;;;;3.71;55.02;93819.16;4984610;28;20018;-74
2022/04/21 00:25:18;;;;;;;5.13;4.40;;;;;;;3.66;55.32;93823.63;4981266;28;20049;-73
2022/04/21 00:27:45;;;;;;;6.70;5.38;;;;;;;3.56;55.62;93815.78;4984324;28;20039;-75
2022/04/21 00:30:11;;;;;;;5.55;4.00;;;;;;;3.71;55.46;93839.41;4980511;28;20157;-73
2022/04/21 00:32:39;;;;;;;11.48;4.55;;;;;;;3.70;55.42;93835.19;4980635;28;20030;-74
2022/04/21 00:35:06;;;;;;;8.32;4.82;;;;;;;3.71;55.35;93829.66;4982942;28;20030;-74
2022/04/21 00:37:32;;;;;;;6.03;4.22;;;;;;;3.76;55.19;93834.13;4988055;28;20037;-74
2022/04/21 00:39:59;;;;;;;7.03;4.53;;;;;;;3.52;55.50;93820.78;4984257;28;20422;-73
2022/04/21 00:42:24;;;;;;;5.65;4.78;;;;;;;3.63;55.57;93834.69;4979320;28;20046;-73
2022/04/21 00:44:50;;;;;;;5.95;4.38;;;;;;;3.69;55.55;93837.03;4982060;28;20515;-71
2022/04/21 00:47:17;;;;;;;5.28;4.00;;;;;;;3.61;55.46;93818.41;4980464;28;20042;-74
2022/04/21 00:49:44;;;;;;;7.85;4.45;;;;;;;3.68;55.50;93838.06;4986484;28;20073;-74
2022/04/21 00:52:09;;;;;;;7.35;4.80;;;;;;;3.54;55.51;93820.50;4975490;28;20042;-74
2022/04/21 00:54:35;;;;;;;6.80;5.32;;;;;;;3.67;55.43;93833.88;4979607;28;20389;-74
2022/04/21 00:57:02;;;;;;;7.22;5.00;;;;;;;3.58;55.44;93824.16;4981760;28;20436;-74
2022/04/21 00:59:28;;;;;;;8.40;5.35;;;;;;;3.66;55.52;93821.00;4988733;28;20030;-71
2022/04/21 01:04:39;;;;;;;7.57;5.30;;;;;;;3.70;55.38;93828.09;4979088;28;20041;-74
2022/04/21 01:07:08;;;;;;;8.38;5.55;;;;;;;3.59;55.49;93799.44;4985637;28;20748;-73
2022/04/21 01:09:38;;;;;;;7.18;5.15;;;;;;;3.75;55.73;93824.66;4983865;28;20464;-73
2022/04/21 01:12:08;;;;;;;6.22;5.05;;;;;;;3.75;55.78;93822.00;4983454;28;20038;-74
2022/04/21 01:14:37;;;;;;;8.20;5.38;;;;;;;3.64;55.63;93796.81;4982542;28;20555;-73
2022/04/21 01:17:03;;;;;;;8.60;5.72;;;;;;;3.75;55.42;93819.38;4990121;28;20485;-73
2022/04/21 01:19:28;;;;;;;5.72;4.53;;;;;;;3.68;55.46;93810.97;4987003;28;20476;-73
2022/04/21 01:21:54;;;;;;;9.27;6.05;;;;;;;3.54;55.70;93783.69;4985147;28;20057;-74
2022/04/21 01:24:19;;;;;;;7.28;4.93;;;;;;;3.79;55.61;93796.75;4985413;28;20684;-74
2022/04/21 01:26:46;;;;;;;7.93;5.25;;;;;;;3.68;55.54;93768.91;4983170;28;20145;-74
2022/04/21 01:29:12;;;;;;;7.53;5.40;;;;;;;3.83;55.42;93793.28;4981480;28;20489;-74
2022/04/21 01:31:38;;;;;;;8.60;6.32;;;;;;;3.86;55.46;93793.81;4988648;28;20068;-74
2022/04/21 01:34:03;;;;;;;10.85;5.53;;;;;;;3.88;55.41;93784.59;4982791;28;20117;-73
2022/04/21 01:36:28;;;;;;;8.20;5.90;;;;;;;3.86;55.62;93784.09;4982956;28;20044;-73
2022/04/21 01:41:38;;;;;;;10.20;5.63;;;;;;;3.58;55.43;93747.91;4986202;28;20115;-75
2022/04/21 01:44:03;;;;;;;8.23;5.10;;;;;;;3.82;55.54;93783.81;4982986;28;20144;-74
2022/04/21 01:46:29;;;;;;;10.48;6.07;;;;;;;3.68;55.47;93758.38;5001050;28;20026;-74
2022/04/21 01:48:55;;;;;;;13.63;5.95;;;;;;;3.81;55.76;93784.09;4984252;28;20046;-74
2022/04/21 01:51:20;;;;;;;7.93;5.55;;;;;;;3.78;55.71;93782.78;4978796;28;20161;-74
2022/04/21 01:53:45;;;;;;;8.20;5.88;;;;;;;3.81;55.80;93781.47;4978686;28;21417;-74
2022/04/21 01:56:11;;;;;;;7.90;5.30;;;;;;;3.82;55.82;93777.78;4987880;28;20469;-74
2022/04/21 01:58:36;;;;;;;6.63;5.57;;;;;;;3.84;55.72;93786.97;4984473;28;20021;-73
2022/04/21 02:01:02;;;;;;;7.95;5.53;;;;;;;3.86;55.52;93783.28;4979607;28;20042;-72
2022/04/21 02:03:32;;;;;;;8.68;5.35;;;;;;;3.75;55.58;93770.19;4984406;28;20042;-74
2022/04/21 02:05:57;;;;;;;7.93;5.70;;;;;;;3.81;55.69;93773.59;4983971;28;20467;-74
2022/04/21 02:08:23;;;;;;;8.07;5.63;;;;;;;3.61;55.56;93728.97;4979096;28;20042;-74
2022/04/21 02:10:48;;;;;;;7.18;4.90;;;;;;;3.86;55.32;93776.19;4986525;28;20305;-73
2022/04/21 02:13:14;;;;;;;8.13;5.65;;;;;;;3.79;55.26;93762.53;4983259;28;20042;-73
2022/04/21 02:15:39;;;;;;;8.15;5.68;;;;;;;3.76;55.38;93768.34;4990656;28;20035;-74
2022/04/21 02:18:05;;;;;;;6.53;5.13;;;;;;;3.81;55.24;93760.44;4980539;28;20121;-73
2022/04/21 02:20:30;;;;;;;10.15;6.07;;;;;;;3.82;55.12;93764.63;4985585;28;20030;-74
2022/04/21 02:22:56;;;;;;;6.47;5.40;;;;;;;3.75;55.16;93751.78;4987910;28;20065;-74
2022/04/21 02:25:22;;;;;;;10.35;5.95;;;;;;;3.80;55.18;93753.59;4977403;28;20146;-74
2022/04/21 02:27:49;;;;;;;9.18;5.85;;;;;;;3.80;55.03;93764.13;4987236;28;20702;-74
2022/04/21 02:30:16;;;;;;;9.77;6.13;;;;;;;3.81;55.14;93766.50;4983386;28;20638;-74
2022/04/21 02:32:42;;;;;;;8.82;6.25;;;;;;;3.75;55.02;93761.50;4983063;28;20035;-74
2022/04/21 02:35:08;;;;;;;8.82;6.25;;;;;;;3.73;55.02;93774.13;4984521;28;20026;-73
2022/04/21 02:37:42;;;;;;;7.97;6.18;;;;;;;3.55;55.36;93751.88;4983222;28;20037;-74
2022/04/21 02:40:09;;;;;;;10.15;6.10;;;;;;;3.55;55.10;93749.25;4984950;28;20077;-73
2022/04/21 02:42:38;;;;;;;6.90;4.75;;;;;;;3.64;55.02;93759.97;4981313;28;20436;-74
2022/04/21 02:45:05;;;;;;;7.63;4.70;;;;;;;3.64;54.68;93765.25;4984780;28;20026;-74
2022/04/21 02:47:30;;;;;;;6.72;4.85;;;;;;;3.71;54.80;93781.53;4981750;28;20493;-74
2022/04/21 02:49:57;;;;;;;7.50;5.03;;;;;;;3.71;54.81;93776.28;4990441;28;20424;-74
2022/04/21 02:52:23;;;;;;;6.30;4.43;;;;;;;3.70;54.79;93782.59;4971345;28;20034;-74
2022/04/21 02:57:32;;;;;;;8.27;4.95;;;;;;;3.64;54.90;93781.81;4979554;28;20045;-74
2022/04/21 03:00:05;;;;;;;7.07;4.80;;;;;;;3.52;55.21;93759.53;4988610;28;20037;-74
2022/04/21 03:02:30;;;;;;;8.65;5.63;;;;;;;3.63;54.75;93779.44;4982716;28;20648;-73
2022/04/21 03:04:56;;;;;;;6.13;4.22;;;;;;;3.52;54.72;93764.78;4987732;28;20057;-74
2022/04/21 03:07:22;;;;;;;7.43;4.85;;;;;;;3.61;54.94;93781.56;4974245;28;20034;-74
2022/04/21 03:09:53;;;;;;;7.32;5.60;;;;;;;3.58;54.96;93787.34;4984247;28;20193;-73
2022/04/21 03:12:18;;;;;;;7.20;4.82;;;;;;;3.46;55.28;93776.38;4981081;28;20057;-73
2022/04/21 03:14:44;;;;;;;7.78;5.40;;;;;;;3.34;55.40;93753.81;4984178;28;21393;-74
2022/04/21 03:17:10;;;;;;;6.07;4.40;;;;;;;3.47;55.26;93770.06;4987165;28;20058;-73
2022/04/21 03:19:37;;;;;;;7.95;5.43;;;;;;;3.38;55.24;93752.19;4984154;28;20030;-74
2022/04/21 03:24:47;;;;;;;8.23;5.90;;;;;;;3.15;55.01;93720.50;4987613;28;20126;-74
2022/04/21 03:27:14;;;;;;;8.18;5.55;;;;;;;3.47;55.15;93775.31;4985118;28;20085;-75
2022/04/21 03:29:40;;;;;;;7.45;5.18;;;;;;;3.23;55.25;93747.00;4981977;28;20038;-74
2022/04/21 03:32:09;;;;;;;8.30;4.82;;;;;;;3.34;55.38;93761.69;4982717;28;20060;-74
2022/04/21 03:34:36;;;;;;;7.70;4.93;;;;;;;3.26;55.38;93753.59;4977851;28;20048;-74
2022/04/21 03:37:02;;;;;;;8.80;5.70;;;;;;;3.38;55.52;93772.44;4983575;28;20040;-71
2022/04/21 03:39:28;;;;;;;9.90;6.10;;;;;;;3.40;55.70;93775.59;4981969;28;20034;-73
2022/04/21 03:41:53;;;;;;;10.15;6.00;;;;;;;3.44;55.79;93773.22;4987649;28;20034;-72
2022/04/21 03:44:20;;;;;;;8.40;5.70;;;;;;;3.40;55.74;93759.84;4980666;28;20045;-73
2022/04/21 03:46:46;;;;;;;10.80;6.20;;;;;;;3.39;55.87;93763.50;4984219;28;20088;-73
2022/04/21 03:49:11;;;;;;;8.10;5.68;;;;;;;3.48;55.76;93771.66;4983266;28;20041;-72
2022/04/21 03:51:37;;;;;;;9.10;6.00;;;;;;;3.52;55.77;93777.94;4985645;28;20030;-72
2022/04/21 03:54:02;;;;;;;9.30;5.75;;;;;;;3.44;55.99;93781.09;4981124;28;20408;-73
2022/04/21 03:56:28;;;;;;;9.50;5.80;;;;;;;3.35;56.32;93758.00;4982959;28;20038;-72
2022/04/21 03:58:53;;;;;;;9.07;5.85;;;;;;;3.51;56.32;93776.34;4984225;28;20036;-72
2022/04/21 04:01:19;;;;;;;9.00;5.55;;;;;;;3.53;56.12;93771.59;4974477;28;20606;-73
2022/04/21 04:03:45;;;;;;;7.97;5.03;;;;;;;3.53;56.50;93772.38;4982436;28;20291;-71
2022/04/21 04:11:39;;;;;;;9.98;6.03;;;;;;;3.39;57.00;93745.91;4978208;28;20136;-73
2022/04/21 04:14:05;;;;;;;10.35;6.40;;;;;;;3.55;57.02;93758.97;4987718;28;20046;-72
2022/04/21 04:16:35;;;;;;;11.07;6.30;;;;;;;3.77;56.92;93785.72;4986662;28;20476;-72
2022/04/21 04:19:03;;;;;;;8.25;5.55;;;;;;;3.83;57.13;93779.34;4988008;28;20042;-72
2022/04/21 04:21:30;;;;;;;10.02;6.15;;;;;;;3.91;57.33;93776.16;4982645;28;20093;-72
2022/04/21 04:23:55;;;;;;;6.70;5.70;;;;;;;3.92;57.56;93761.94;4980847;28;20031;-72
2022/04/21 04:26:21;;;;;;;9.05;5.93;;;;;;;4.06;57.49;93762.88;4987235;28;20049;-73
2022/04/21 04:28:47;;;;;;;9.30;6.82;;;;;;;4.03;57.26;93731.88;4978520;28;20029;-71
2022/04/21 04:31:12;;;;;;;12.25;6.45;;;;;;;4.06;57.77;93747.09;4986427;28;20045;-72
2022/04/21 04:33:38;;;;;;;10.43;7.25;;;;;;;4.27;57.81;93753.81;4984630;28;20038;-72
2022/04/21 04:36:03;;;;;;;13.43;8.25;;;;;;;4.33;57.67;93749.31;4985049;28;20551;-73
2022/04/21 04:38:29;;;;;;;13.75;8.15;;;;;;;4.47;57.42;93762.63;4984978;28;20397;-73
2022/04/21 04:40:55;;;;;;;16.40;9.90;;;;;;;4.51;57.00;93742.56;4988654;28;20034;-72
2022/04/21 04:43:22;;;;;;;19.25;10.38;;;;;;;3.86;57.45;93765.66;4983724;28;20042;-74
2022/04/21 04:48:45;;;;;;;14.30;9.75;;;;;;;4.08;57.28;93758.16;5000019;28;20038;-75
2022/04/21 04:51:10;;;;;;;14.70;10.32;;;;;;;4.22;56.96;93768.84;4981447;28;20438;-75
2022/04/21 04:53:36;;;;;;;17.98;11.43;;;;;;;4.18;56.65;93775.72;4989528;28;20536;-75
2022/04/21 04:56:01;;;;;;;18.35;10.55;;;;;;;4.12;56.60;93753.13;4988530;28;20037;-73
2022/04/21 04:58:26;;;;;;;20.38;12.32;;;;;;;4.34;56.40;93779.06;4987011;28;20034;-75
2022/04/21 05:00:52;;;;;;;18.30;11.75;;;;;;;4.18;57.35;93778.34;4978630;28;20672;-72
2022/04/21 05:03:19;;;;;;;21.15;12.48;;;;;;;4.27;57.49;93782.75;4982279;28;20128;-73
2022/04/21 05:05:44;;;;;;;23.98;12.38;;;;;;;4.27;57.43;93777.50;4987410;28;20045;-73
2022/04/21 05:08:09;;;;;;;26.60;11.32;;;;;;;4.11;57.53;93775.25;4982719;28;20420;-72
2022/04/21 05:10:35;;;;;;;18.75;12.00;;;;;;;4.00;58.14;93773.75;4987641;28;20030;-72
2022/04/21 05:13:00;;;;;;;20.55;12.60;;;;;;;4.16;57.88;93773.34;4984949;28;20748;-73
2022/04/21 05:15:26;;;;;;;16.55;11.57;;;;;;;4.32;57.09;93765.38;4988450;28;20045;-74
2022/04/21 05:17:51;;;;;;;22.88;11.73;;;;;;;4.46;57.46;93792.66;4993075;28;20595;-73
2022/04/21 05:20:17;;;;;;;20.17;11.20;;;;;;;4.55;57.44;93791.78;4991495;28;20030;-70
2022/04/21 05:22:47;;;;;;;19.02;11.57;;;;;;;4.25;57.88;93795.44;4982551;28;20405;-73
2022/04/21 05:25:13;;;;;;;22.63;12.30;;;;;;;4.22;58.01;93790.69;4979617;28;20113;-70
2022/04/21 05:27:39;;;;;;;23.35;12.88;;;;;;;4.16;58.04;93786.50;4986957;28;20042;-72
2022/04/21 05:33:03;;;;;;;20.75;12.13;;;;;;;3.87;58.91;93798.03;4988542;28;20049;-75
2022/04/21 05:35:28;;;;;;;25.10;13.55;;;;;;;2.82;63.01;93800.72;4985230;28;20042;-72
2022/04/21 05:37:55;;;;;;;28.17;14.48;;;;;;;2.82;63.80;93792.84;4987271;28;20034;-72
2022/04/21 05:40:21;;;;;;;21.90;13.38;;;;;;;2.25;66.11;93765.06;4985989;28;20034;-73
2022/04/21 05:42:49;;;;;;;23.30;13.80;;;;;;;2.89;65.43;93796.00;4984886;28;20065;-72
2022/04/21 05:45:15;;;;;;;17.75;12.60;;;;;;;2.70;65.01;93779.97;4988458;28;20640;-76
2022/04/21 05:47:41;;;;;;;26.27;13.93;;;;;;;2.84;64.07;93793.38;4985870;28;20181;-76
2022/04/21 05:50:08;;;;;;;17.98;11.82;;;;;;;2.85;64.24;93800.19;4978859;28;20478;-73
2022/04/21 05:52:37;;;;;;;22.30;12.90;;;;;;;2.66;65.88;93793.91;4989993;28;20095;-74
2022/04/21 05:55:02;;;;;;;27.15;15.27;;;;;;;2.58;65.86;93794.44;4984286;28;20042;-70
2022/04/21 05:57:28;;;;;;;26.33;14.85;;;;;;;2.05;66.97;93759.78;4978973;28;20359;-74
2022/04/21 05:59:53;;;;;;;38.63;17.77;;;;;;;2.38;66.95;93790.75;4988162;28;20038;-74
2022/04/21 06:02:18;;;;;;;23.50;14.98;;;;;;;1.86;68.84;93746.38;4984014;28;20030;-74
2022/04/21 06:04:44;;;;;;;24.70;14.60;;;;;;;1.98;69.03;93781.00;4984376;28;20052;-74
2022/04/21 06:07:09;;;;;;;24.65;13.85;;;;;;;2.17;69.07;93757.69;4982843;28;20034;-74
2022/04/21 06:09:35;;;;;;;26.05;14.02;;;;;;;2.41;68.18;93779.72;4984883;28;20152;-74
2022/04/21 06:12:02;;;;;;;27.08;14.88;;;;;;;2.78;66.80;93770.78;4985560;28;20056;-74
2022/04/21 06:14:27;;;;;;;25.92;14.10;;;;;;;2.58;66.96;93778.69;4984414;28;20464;-73
2022/04/21 06:16:52;;;;;;;21.58;13.85;;;;;;;2.68;67.02;93776.06;4987232;28;20164;-73
2022/04/21 06:19:18;;;;;;;24.55;13.50;;;;;;;2.77;65.62;93784.97;4988522;28;20049;-74
2022/04/21 06:21:43;;;;;;;19.63;12.77;;;;;;;2.95;65.21;93789.66;4989653;28;20144;-74
2022/04/21 06:24:10;;;;;;;24.33;13.73;;;;;;;2.62;66.25;93787.59;4976482;28;20034;-74
2022/04/21 06:26:36;;;;;;;23.77;12.05;;;;;;;2.38;67.24;93780.28;4993760;28;20122;-74
2022/04/21 06:29:02;;;;;;;21.35;13.05;;;;;;;2.48;67.30;93785.50;4983372;28;20600;-73
2022/04/21 06:31:27;;;;;;;25.98;13.73;;;;;;;2.43;67.77;93761.09;4981663;28;20117;-74
2022/04/21 06:33:53;;;;;;;27.88;12.05;;;;;;;2.44;68.52;93794.19;4996645;28;20504;-74
2022/04/21 06:36:18;;;;;;;24.35;13.43;;;;;;;2.64;68.03;93783.69;4980219;28;20065;-74
2022/04/21 06:38:44;;;;;;;27.17;12.77;;;;;;;2.40;68.31;93774.75;4986083;28;20131;-74
2022/04/21 06:41:11;;;;;;;24.60;13.63;;;;;;;2.56;67.87;93788.66;4976318;28;20161;-74
2022/04/21 06:49:04;;;;;;;25.52;13.35;;;;;;;2.58;67.70;93762.94;4983973;28;20570;-72
2022/04/21 06:51:30;;;;;;;24.67;11.45;;;;;;;2.50;67.65;93766.84;4979175;28;20397;-75
2022/04/21 06:53:55;;;;;;;24.20;13.85;;;;;;;2.93;67.35;93776.03;4986394;28;20057;-74
2022/04/21 06:56:21;;;;;;;20.90;13.23;;;;;;;2.97;66.28;93787.56;4979660;28;20784;-74
2022/04/21 06:58:46;;;;;;;17.25;9.57;;;;;;;2.80;65.79;93784.44;5002981;28;20124;-73
2022/04/21 07:01:12;;;;;;;25.75;11.98;;;;;;;2.48;66.79;93771.59;4979387;28;20540;-73
2022/04/21 07:03:38;;;;;;;14.43;9.27;;;;;;;2.93;65.34;93786.53;4991037;28;20054;-73
2022/04/21 07:06:04;;;;;;;16.58;10.65;;;;;;;3.21;63.97;93772.78;4982635;28;20038;-72
2022/04/21 07:08:30;;;;;;;20.55;10.60;;;;;;;3.21;64.72;93767.53;4983218;28;20511;-72
2022/04/21 07:10:55;;;;;;;17.90;10.90;;;;;;;2.80;65.08;93776.53;4998492;28;20029;-73
2022/04/21 07:13:21;;;;;;;20.55;10.77;;;;;;;2.78;65.15;93765.53;4983653;28;20042;-73
2022/04/21 07:15:46;;;;;;;15.45;10.77;;;;;;;3.16;65.11;93791.19;4984307;28;20082;-72
2022/04/21 07:18:13;;;;;;;18.45;11.18;;;;;;;3.15;65.45;93794.88;4984530;28;20122;-72
2022/04/21 07:20:39;;;;;;;22.65;10.68;;;;;;;3.29;65.59;93795.88;4985953;28;20046;-72
2022/04/21 07:23:04;;;;;;;19.58;10.90;;;;;;;3.80;63.22;93796.47;4983116;28;20136;-73
2022/04/21 07:25:30;;;;;;;25.10;12.00;;;;;;;3.73;63.32;93789.91;4985016;28;20022;-73
2022/04/21 07:27:55;;;;;;;17.00;10.32;;;;;;;3.64;62.83;93809.94;4984056;28;20571;-74
2022/04/21 07:30:21;;;;;;;17.33;10.38;;;;;;;3.67;62.61;93817.31;4981778;28;20034;-73
2022/04/21 07:32:47;;;;;;;17.63;11.27;;;;;;;4.32;61.06;93813.56;4984623;28;20071;-72
2022/04/21 07:35:12;;;;;;;18.52;11.75;;;;;;;4.61;60.18;93811.78;4984775;28;20026;-74
2022/04/21 07:37:39;;;;;;;18.65;11.50;;;;;;;3.55;61.21;93774.75;4984489;28;20018;-72
2022/04/21 07:40:05;;;;;;;17.80;10.18;;;;;;;3.30;63.22;93812.44;4982702;28;20056;-74
2022/04/21 07:42:31;;;;;;;19.73;11.13;;;;;;;3.18;64.35;93818.00;4980958;28;20133;-73
2022/04/21 07:45:00;;;;;;;19.98;11.63;;;;;;;3.36;64.68;93809.53;4989115;28;20049;-74
2022/04/21 07:47:25;;;;;;;24.85;13.13;;;;;;;3.57;64.78;93801.59;4978281;28;20104;-74
2022/04/21 07:49:51;;;;;;;18.33;11.57;;;;;;;4.11;64.30;93801.56;4986693;28;20029;-73
2022/04/21 07:55:15;;;;;;;19.40;11.98;;;;;;;3.99;63.58;93812.41;4985023;28;20085;-73
2022/04/21 07:57:41;;;;;;;22.55;13.48;;;;;;;4.36;62.54;93813.78;4976648;28;20360;-74
2022/04/21 08:00:08;;;;;;;18.55;11.88;;;;;;;4.88;60.32;93798.13;4984284;28;20042;-73
2022/04/21 08:02:33;;;;;;;15.65;11.05;;;;;;;5.13;59.85;93797.88;4984189;28;20044;-74
2022/04/21 08:04:59;;;;;;;19.27;11.48;;;;;;;4.59;59.89;93771.75;4984750;28;20034;-74
2022/04/21 08:07:24;;;;;;;21.92;13.18;;;;;;;4.14;60.70;93749.16;4993459;28;20923;-74
2022/04/21 08:09:50;;;;;;;25.65;11.00;;;;;;;4.26;61.15;93778.56;4983390;28;20052;-73
2022/04/21 08:12:15;;;;;;;21.70;12.45;;;;;;;4.83;60.28;93779.72;4986420;28;20038;-74
2022/04/21 08:14:41;;;;;;;22.45;13.00;;;;;;;4.84;59.24;93772.59;4985107;28;20041;-73
2022/04/21 08:17:06;;;;;;;21.27;12.88;;;;;;;4.61;60.49;93795.97;4989066;28;20030;-74
2022/04/21 08:19:32;;;;;;;22.02;11.90;;;;;;;5.06;59.33;93794.00;4991880;28;20033;-73
2022/04/21 08:21:58;;;;;;;24.35;12.07;;;;;;;4.75;61.09;93800.63;4989348;28;20331;-74
2022/04/21 08:32:43;;;;;;;18.30;11.02;;;;;;;4.83;61.06;93792.09;4985812;28;20508;-75
2022/04/21 08:35:13;;;;;;;19.13;10.88;;;;;;;5.17;60.38;93807.88;4981338;28;20065;-75
2022/04/21 08:37:39;;;;;;;19.80;11.77;;;;;;;4.91;59.92;93779.09;4990776;28;20064;-74
2022/04/21 08:40:06;;;;;;;19.60;11.57;;;;;;;4.98;59.58;93803.31;4983063;28;20488;-74
2022/04/21 08:42:39;;;;;;;18.08;11.77;;;;;;;5.07;59.53;93796.34;4987286;28;20122;-74
2022/04/21 08:45:07;;;;;;;17.13;11.68;;;;;;;5.65;59.89;93798.09;4982709;28;20041;-75
2022/04/21 08:47:33;;;;;;;21.35;11.70;;;;;;;6.08;58.56;93801.50;4985189;28;20042;-74
2022/04/21 08:50:07;;;;;;;22.35;11.48;;;;;;;6.07;56.56;93792.78;4989826;28;20036;-74
2022/04/21 08:52:34;;;;;;;20.00;11.73;;;;;;;6.17;56.52;93786.63;4979724;28;20041;-74
2022/04/21 08:55:00;;;;;;;18.52;13.15;;;;;;;5.79;56.95;93765.47;4987505;28;20077;-74
2022/04/21 08:57:28;;;;;;;29.27;13.40;;;;;;;5.22;59.13;93774.31;4986270;28;20109;-74
2022/04/21 08:59:54;;;;;;;18.80;12.40;;;;;;;5.30;58.76;93772.91;4987077;28;20045;-74
2022/04/21 09:02:20;;;;;;;20.30;11.90;;;;;;;4.93;59.64;93763.81;4989311;28;20040;-74
2022/04/21 09:04:45;;;;;;;20.02;12.38;;;;;;;5.19;60.43;93784.66;4983175;28;20105;-74
2022/04/21 09:07:18;;;;;;;20.08;12.02;;;;;;;4.91;61.38;93754.59;4984116;28;20041;-73
2022/04/21 09:10:05;;;;;;;24.38;12.85;;;;;;;5.14;60.50;93774.91;4981709;28;20041;-74
2022/04/21 09:12:32;;;;;;;18.77;11.73;;;;;;;5.52;58.79;93742.34;4984458;28;20064;-74
2022/04/21 09:14:57;;;;;;;24.42;13.10;;;;;;;5.19;59.11;93753.00;4984576;28;20555;-73
2022/04/21 09:17:24;;;;;;;22.00;12.25;;;;;;;5.17;59.99;93781.50;4990751;28;20176;-75
2022/04/21 09:20:00;;;;;;;19.77;11.73;;;;;;;5.35;59.81;93762.31;4988522;28;20030;-73
2022/04/21 09:22:30;;;;;;;27.85;14.05;;;;;;;5.36;59.13;93777.06;4987390;28;20058;-73
2022/04/21 09:24:58;;;;;;;22.20;12.73;;;;;;;5.20;60.49;93780.94;4983007;28;20116;-74
2022/04/21 09:27:23;;;;;;;22.80;13.45;;;;;;;5.47;60.26;93771.41;4987726;28;20060;-75
2022/04/21 09:29:50;;;;;;;21.50;10.82;;;;;;;5.35;59.44;93768.38;4982588;28;20031;-73
2022/04/21 09:32:17;;;;;;;21.02;12.50;;;;;;;5.72;59.38;93757.13;4978335;28;20034;-74
2022/04/21 09:34:50;;;;;;;23.17;11.98;;;;;;;5.58;58.07;93761.50;4986146;28;20723;-74
2022/04/21 09:37:22;;;;;;;20.45;12.13;;;;;;;5.89;58.56;93762.69;4988478;28;20967;-74
2022/04/21 09:39:52;;;;;;;24.25;13.43;;;;;;;6.52;57.59;93762.31;4984325;28;20041;-74
2022/04/21 09:42:24;;;;;;;23.40;14.63;;;;;;;5.89;57.41;93778.53;4984838;28;20072;-73
2022/04/21 09:47:33;;;;;;;21.42;12.73;;;;;;;6.15;57.24;93781.63;4984207;28;20080;-74
2022/04/21 09:50:11;;;;;;;25.17;13.48;;;;;;;5.92;57.80;93777.94;4994820;28;20029;-75
2022/04/21 09:52:36;;;;;;;22.67;12.98;;;;;;;5.68;57.80;93782.47;4982233;28;20172;-74
2022/04/21 09:55:30;;;;;;;35.83;23.13;;;;;;;5.76;59.09;93762.63;4985550;28;20568;-74
2022/04/21 09:58:08;;;;;;;31.23;16.92;;;;;;;6.14;58.72;93758.13;4981564;28;20081;-74
2022/04/21 10:00:36;;;;;;;24.63;13.20;;;;;;;6.69;57.54;93775.81;4980840;28;20064;-75
2022/04/21 10:03:02;;;;;;;22.85;12.80;;;;;;;7.00;56.06;93775.28;4979641;28;20196;-74
2022/04/21 10:05:33;;;;;;;21.42;12.85;;;;;;;7.16;55.36;93771.28;4984727;28;20552;-74
2022/04/21 10:08:06;;;;;;;24.65;14.38;;;;;;;7.28;54.61;93750.44;4982457;28;20599;-72
2022/04/21 10:10:33;;;;;;;27.33;12.93;;;;;;;7.55;54.13;93734.56;4981157;28;20150;-75
2022/04/21 10:13:00;;;;;;;21.23;13.43;;;;;;;7.56;54.37;93757.31;4982084;28;20540;-75
2022/04/21 10:15:27;;;;;;;25.02;13.48;;;;;;;7.96;54.28;93760.22;4978002;28;20082;-74
2022/04/21 10:17:53;;;;;;;20.83;11.77;;;;;;;7.77;52.67;93710.06;4986453;28;20224;-74
2022/04/21 10:20:23;;;;;;;23.92;13.32;;;;;;;7.73;53.36;93761.25;4980287;28;20442;-74
2022/04/21 10:22:49;;;;;;;25.60;13.48;;;;;;;6.89;54.62;93715.75;4980393;28;20088;-72
2022/04/21 10:25:15;;;;;;;21.73;12.35;;;;;;;6.92;54.95;93737.09;4970426;28;20611;-72
2022/04/21 10:27:43;;;;;;;23.48;13.60;;;;;;;6.97;55.35;93730.91;4981909;28;20038;-71
2022/04/21 10:30:26;;;;;;;27.50;13.98;;;;;;;7.51;55.36;93762.69;4976603;28;21167;-72
2022/04/21 10:32:56;;;;;;;25.80;13.07;;;;;;;7.81;53.94;93726.13;4982772;28;20508;-70
2022/04/21 10:35:28;;;;;;;23.05;13.77;;;;;;;8.16;53.30;93751.84;4975063;28;20046;-72
2022/04/21 10:38:12;;;;;;;26.80;12.93;;;;;;;8.33;52.22;93746.69;4977786;28;20057;-72
2022/04/21 10:40:53;;;;;;;23.10;13.75;;;;;;;8.46;52.73;93748.47;4976456;28;20471;-72
2022/04/21 10:43:19;;;;;;;25.38;14.35;;;;;;;7.79;53.12;93749.47;4985014;28;20042;-73
2022/04/21 10:46:05;;;;;;;22.85;13.50;;;;;;;7.17;54.28;93743.78;4979003;28;20621;-73
2022/04/21 10:48:44;;;;;;;26.00;13.18;;;;;;;7.01;54.99;93748.56;4981417;28;20324;-72
2022/04/21 10:51:33;;;;;;;30.00;15.20;;;;;;;7.10;55.65;93752.09;4981440;28;20042;-72
2022/04/21 10:59:48;;;;;;;20.83;11.98;;;;;;;7.39;54.37;93746.50;4983552;28;20176;-70
2022/04/21 11:02:14;;;;;;;24.83;13.77;;;;;;;7.19;55.25;93752.97;4982497;28;20030;-72
2022/04/21 11:04:39;;;;;;;26.90;14.15;;;;;;;7.43;54.47;93742.22;4980717;28;20559;-72
2022/04/21 11:07:09;;;;;;;24.52;14.60;;;;;;;8.11;55.46;93738.72;4984867;28;20512;-73
2022/04/21 11:09:35;;;;;;;28.48;14.38;;;;;;;8.40;54.48;93727.72;4986816;28;20419;-73
2022/04/21 11:12:00;;;;;;;24.48;14.98;;;;;;;7.61;54.72;93743.97;4982334;28;20050;-73
2022/04/21 11:14:31;;;;;;;36.53;16.85;;;;;;;7.99;52.85;93741.88;4982146;28;20038;-72
2022/04/21 11:16:57;;;;;;;27.52;17.05;;;;;;;7.82;53.87;93733.00;4984277;28;20427;-74
2022/04/21 11:19:32;;;;;;;33.50;17.45;;;;;;;7.70;53.29;93742.19;4978408;28;20377;-73
2022/04/21 11:22:05;;;;;;;;;;;;;;;8.00;53.79;93740.81;4983800;28;20082;-73
2022/04/21 11:24:55;;;;;;;24.30;13.25;;;;;;;7.73;56.12;93745.38;4983212;28;20264;-73
2022/04/21 11:27:22;;;;;;;26.17;14.18;;;;;;;7.84;54.63;93731.59;4980742;28;20042;-71
2022/04/21 11:29:47;;;;;;;23.35;14.02;;;;;;;7.82;54.46;93739.09;4987426;28;20357;-74
2022/04/21 11:32:17;;;;;;;23.10;14.82;;;;;;;7.38;55.46;93734.38;4976903;28;20096;-73
2022/04/21 11:34:57;;;;;;;26.20;15.13;;;;;;;7.40;55.50;93726.91;4984138;28;20161;-72
2022/04/21 11:37:22;;;;;;;24.85;14.18;;;;;;;7.14;56.32;93733.78;4980576;28;20385;-74
2022/04/21 11:39:47;;;;;;;27.35;14.50;;;;;;;7.38;56.52;93737.03;4983708;28;20034;-73
2022/04/21 11:42:24;;;;;;;30.85;14.82;;;;;;;7.35;55.45;93734.97;4978159;28;20559;-73
2022/04/21 11:44:50;;;;;;;27.83;15.85;;;;;;;7.45;55.52;93728.69;4983482;28;20038;-73
2022/04/21 11:47:19;;;;;;;24.17;13.93;;;;;;;7.95;53.96;93722.38;4979430;28;20030;-73
2022/04/21 11:49:59;;;;;;;24.80;13.45;;;;;;;7.86;55.83;93720.72;4982933;28;20026;-73
2022/04/21 11:52:28;;;;;;;27.15;14.43;;;;;;;7.75;54.86;93716.72;4978002;28;20042;-73
2022/04/21 11:55:04;;;;;;;25.08;13.23;;;;;;;7.92;54.05;93719.53;5002145;28;20527;-73
2022/04/21 11:57:43;;;;;;;24.27;13.63;;;;;;;7.91;54.44;93704.72;4981608;28;20114;-73
2022/04/21 12:00:09;;;;;;;25.80;13.02;;;;;;;8.49;55.73;93713.44;4979472;28;20057;-72
2022/04/21 12:08:06;;;;;;;22.17;12.52;;;;;;;8.65;54.68;93705.91;4976978;28;20029;-72
2022/04/21 12:10:32;;;;;;;25.13;13.65;;;;;;;8.83;56.26;93696.97;4978442;28;20096;-73
2022/04/21 12:12:58;;;;;;;23.95;13.50;;;;;;;8.84;54.09;93705.69;4980640;28;20156;-72
2022/04/21 12:15:28;;;;;;;24.13;13.77;;;;;;;8.56;53.84;93692.59;4980607;28;20034;-73
2022/04/21 12:18:04;;;;;;;36.25;13.13;;;;;;;8.99;53.59;93692.06;4985094;28;20408;-72
2022/04/21 12:20:29;;;;;;;23.50;13.10;;;;;;;8.82;53.41;93689.28;4986423;28;20044;-72
2022/04/21 12:22:56;;;;;;;29.48;13.27;;;;;;;8.56;54.32;93674.03;4983185;28;20512;-72
2022/04/21 12:25:31;;;;;;;21.77;12.77;;;;;;;9.18;57.46;93689.97;4977303;28;20501;-73
2022/04/21 12:28:15;;;;;;;23.58;11.85;;;;;;;9.18;53.73;93679.34;4999100;28;20385;-73